createdAt,value
2022-10-04T00:00:51.017Z,15.45
2022-10-04T00:03:25.963Z,14.93
2022-10-04T00:05:57.458Z,13.17
2022-10-04T00:08:30.946Z,14.25
2022-10-04T00:11:06.348Z,16.92
2022-10-04T00:13:37.511Z,11.77
2022-10-04T00:16:05.847Z,15.57
2022-10-04T00:18:40.423Z,14.07
2022-10-04T00:21:10.121Z,16.83
2022-10-04T00:23:48.513Z,13.35
2022-10-04T00:26:53.896Z,10.48
2022-10-04T00:29:32.144Z,13.10
2022-10-04T00:32:31.119Z,13.17
2022-10-04T00:35:00.090Z,12.27
2022-10-04T00:37:48.916Z,13.93
2022-10-04T00:40:20.887Z,14.43
2022-10-04T00:42:56.636Z,12.93
2022-10-04T00:45:30.247Z,12.57
2022-10-04T00:48:34.552Z,14.90
2022-10-04T00:51:10.595Z,12.73
2022-10-04T00:53:48.772Z,14.32
2022-10-04T00:56:24.352Z,11.45
2022-10-04T00:59:25.989Z,13.30
2022-10-04T01:01:59.509Z,12.88
2022-10-04T01:04:53.320Z,12.98
2022-10-04T01:07:28.751Z,13.73
2022-10-04T01:10:02.585Z,12.93
2022-10-04T01:12:41.149Z,16.73
2022-10-04T01:15:15.223Z,14.70
2022-10-04T01:17:43.062Z,14.52
2022-10-04T01:20:35.877Z,15.35
2022-10-04T01:23:05.491Z,13.70
2022-10-04T01:25:48.439Z,14.37
2022-10-04T01:28:16.561Z,15.25
2022-10-04T01:30:45.341Z,13.52
2022-10-04T01:33:14.309Z,14.25
2022-10-04T01:35:42.348Z,17.83
2022-10-04T01:38:12.917Z,15.53
2022-10-04T01:40:46.757Z,15.73
2022-10-04T01:43:20.309Z,14.15
2022-10-04T01:45:51.130Z,11.60
2022-10-04T01:48:23.455Z,13.38
2022-10-04T01:50:58.012Z,12.63
2022-10-04T01:53:30.277Z,10.52
2022-10-04T01:56:06.489Z,13.88
2022-10-04T01:58:42.373Z,13.68
2022-10-04T02:01:14.769Z,15.30
2022-10-04T02:03:45.050Z,13.03
2022-10-04T02:06:15.047Z,12.43
2022-10-04T02:08:49.417Z,13.98
2022-10-04T02:11:20.206Z,16.58
2022-10-04T02:13:51.344Z,10.27
2022-10-04T02:16:20.897Z,15.17
2022-10-04T02:18:51.235Z,13.48
2022-10-04T02:21:20.462Z,14.50
2022-10-04T02:23:50.018Z,15.30
2022-10-04T02:26:17.732Z,15.05
2022-10-04T02:28:45.484Z,12.30
2022-10-04T02:31:30.872Z,15.23
2022-10-04T02:34:00.877Z,11.02
2022-10-04T02:36:30.437Z,14.95
2022-10-04T02:39:04.966Z,12.07
2022-10-04T02:41:35.650Z,12.47
2022-10-04T02:44:10.891Z,13.35
2022-10-04T02:46:45.608Z,12.85
2022-10-04T02:49:22.831Z,11.80
2022-10-04T02:51:53.709Z,13.20
2022-10-04T02:54:29.645Z,10.20
2022-10-04T02:56:58.967Z,13.32
2022-10-04T02:59:27.473Z,11.43
2022-10-04T03:01:58.314Z,12.85
2022-10-04T03:04:29.017Z,14.15
2022-10-04T03:06:58.482Z,13.17
2022-10-04T03:09:30.072Z,10.45
2022-10-04T03:11:59.026Z,11.82
2022-10-04T03:14:28.817Z,14.27
2022-10-04T03:17:00.634Z,13.65
2022-10-04T03:19:31.198Z,12.73
2022-10-04T03:22:03.120Z,11.82
2022-10-04T03:24:34.464Z,16.15
2022-10-04T03:27:06.939Z,14.25
2022-10-04T03:29:35.745Z,13.93
2022-10-04T03:32:05.401Z,16.80
2022-10-04T03:34:37.091Z,13.45
2022-10-04T03:37:08.080Z,14.02
2022-10-04T03:39:41.947Z,14.18
2022-10-04T03:42:16.035Z,12.27
2022-10-04T03:44:45.603Z,15.87
2022-10-04T03:47:15.953Z,14.45
2022-10-04T03:49:48.625Z,15.85
2022-10-04T03:52:23.884Z,17.23
2022-10-04T03:54:55.703Z,12.68
2022-10-04T03:57:24.023Z,13.17
2022-10-04T03:59:52.756Z,12.48
2022-10-04T04:02:35.015Z,16.15
2022-10-04T04:05:11.956Z,17.77
2022-10-04T04:07:44.813Z,12.85
2022-10-04T04:10:22.111Z,14.17
2022-10-04T04:12:57.304Z,12.40
2022-10-04T04:15:29.696Z,15.38
2022-10-04T04:18:02.484Z,13.68
2022-10-04T04:20:34.024Z,12.55
2022-10-04T04:23:05.236Z,13.27
2022-10-04T04:25:38.109Z,16.30
2022-10-04T04:28:15.966Z,15.32
2022-10-04T04:30:47.931Z,15.18
2022-10-04T04:33:25.766Z,16.38
2022-10-04T04:35:57.181Z,11.57
2022-10-04T04:38:26.291Z,12.60
2022-10-04T04:40:55.699Z,12.57
2022-10-04T04:43:27.548Z,13.82
2022-10-04T04:46:22.239Z,16.08
2022-10-04T04:48:47.475Z,12.00
2022-10-04T04:51:21.312Z,13.40
2022-10-04T04:53:49.967Z,17.95
2022-10-04T04:56:23.883Z,16.98
2022-10-04T04:58:54.579Z,15.70
2022-10-04T05:01:25.579Z,16.03
2022-10-04T05:04:04.198Z,16.75
2022-10-04T05:06:33.242Z,18.10
2022-10-04T05:09:01.884Z,14.18
2022-10-04T05:11:33.285Z,13.50
2022-10-04T05:14:05.901Z,18.63
2022-10-04T05:16:39.706Z,14.77
2022-10-04T05:19:12.994Z,15.88
2022-10-04T05:21:44.602Z,12.77
2022-10-04T05:24:18.687Z,15.02
2022-10-04T05:26:51.278Z,14.23
2022-10-04T05:29:21.449Z,14.70
2022-10-04T05:31:56.356Z,15.18
2022-10-04T05:34:26.085Z,12.98
2022-10-04T05:37:32.523Z,14.90
2022-10-04T05:40:11.760Z,12.93
2022-10-04T05:42:45.276Z,12.98
2022-10-04T05:45:18.387Z,11.70
2022-10-04T05:47:48.808Z,11.75
2022-10-04T05:50:19.455Z,16.00
2022-10-04T05:52:49.849Z,15.00
2022-10-04T05:55:28.115Z,12.85
2022-10-04T05:58:18.079Z,13.82
2022-10-04T06:01:06.199Z,16.92
2022-10-04T06:03:45.358Z,16.55
2022-10-04T06:06:20.881Z,15.83
2022-10-04T06:08:57.347Z,15.35
2022-10-04T06:11:40.546Z,19.20
2022-10-04T06:14:38.187Z,19.52
2022-10-04T06:17:22.686Z,15.02
2022-10-04T06:20:22.748Z,17.40
2022-10-04T06:22:58.017Z,17.77
2022-10-04T06:25:32.436Z,15.82
2022-10-04T06:28:11.651Z,20.23
2022-10-04T06:30:56.091Z,17.60
2022-10-04T06:33:37.744Z,15.30
2022-10-04T06:36:37.031Z,16.50
2022-10-04T06:39:23.170Z,14.35
2022-10-04T06:42:15.582Z,23.02
2022-10-04T06:45:05.214Z,14.52
2022-10-04T06:47:50.807Z,18.50
2022-10-04T06:50:29.666Z,19.52
2022-10-04T06:53:20.534Z,21.52
2022-10-04T06:56:05.656Z,20.23
2022-10-04T06:58:56.848Z,17.00
2022-10-04T07:01:29.761Z,24.63
2022-10-04T07:04:07.171Z,20.00
2022-10-04T07:06:41.273Z,23.27
2022-10-04T07:09:19.750Z,24.95
2022-10-04T07:11:52.197Z,20.65
2022-10-04T07:14:24.824Z,21.93
2022-10-04T07:16:57.025Z,24.60
2022-10-04T07:19:37.259Z,21.02
2022-10-04T07:22:15.788Z,19.90
2022-10-04T07:24:50.285Z,23.10
2022-10-04T07:27:21.823Z,29.20
2022-10-04T07:29:54.410Z,20.15
2022-10-04T07:32:24.380Z,17.95
2022-10-04T07:35:00.067Z,23.35
2022-10-04T07:37:31.723Z,24.02
2022-10-04T07:40:05.438Z,24.10
2022-10-04T07:42:39.220Z,23.95
2022-10-04T07:45:15.200Z,22.02
2022-10-04T07:47:43.233Z,27.80
2022-10-04T07:50:36.423Z,21.27
2022-10-04T07:53:09.761Z,23.13
2022-10-04T07:55:46.532Z,25.25
2022-10-04T07:58:27.789Z,22.42
2022-10-04T08:01:00.171Z,21.98
2022-10-04T08:04:03.295Z,24.38
2022-10-04T08:06:37.535Z,23.57
2022-10-04T08:09:23.385Z,24.98
2022-10-04T08:11:59.422Z,23.17
2022-10-04T08:14:35.713Z,18.92
2022-10-04T08:17:15.913Z,21.23
2022-10-04T08:19:52.672Z,24.33
2022-10-04T08:22:34.158Z,18.92
2022-10-04T08:25:12.304Z,21.40
2022-10-04T08:28:11.921Z,21.13
2022-10-04T08:31:04.094Z,23.15
2022-10-04T08:33:59.257Z,21.30
2022-10-04T08:36:42.961Z,22.50
2022-10-04T08:39:26.029Z,27.40
2022-10-04T08:42:28.871Z,26.85
2022-10-04T08:45:21.968Z,21.35
2022-10-04T08:48:34.360Z,20.47
2022-10-04T08:51:36.861Z,24.27
2022-10-04T08:54:53.128Z,21.77
2022-10-04T08:57:52.053Z,25.13
2022-10-04T09:00:26.423Z,20.63
2022-10-04T09:03:41.470Z,23.37
2022-10-04T09:06:22.802Z,23.23
2022-10-04T09:09:34.878Z,24.92
2022-10-04T09:12:29.437Z,25.83
2022-10-04T09:15:19.879Z,22.90
2022-10-04T09:17:55.317Z,26.27
2022-10-04T09:20:38.825Z,27.10
2022-10-04T09:23:20.683Z,23.38
2022-10-04T09:25:56.357Z,24.73
2022-10-04T09:28:47.071Z,22.45
2022-10-04T09:31:37.396Z,21.97
2022-10-04T09:34:23.302Z,24.92
2022-10-04T09:37:04.068Z,24.90
2022-10-04T09:40:06.580Z,21.20
2022-10-04T09:43:09.794Z,24.20
2022-10-04T09:46:04.398Z,22.77
2022-10-04T09:48:40.605Z,22.67
2022-10-04T09:51:25.972Z,22.88
2022-10-04T09:54:05.620Z,22.30
2022-10-04T09:56:49.292Z,24.35
2022-10-04T09:59:55.482Z,17.63
2022-10-04T10:03:02.859Z,20.25
2022-10-04T10:05:49.958Z,18.83
2022-10-04T10:08:28.447Z,21.52
2022-10-04T10:11:22.456Z,18.55
2022-10-04T10:14:19.863Z,16.70
2022-10-04T10:17:00.091Z,18.00
2022-10-04T10:19:54.081Z,18.13
2022-10-04T10:22:38.187Z,17.65
2022-10-04T10:25:16.966Z,19.48
2022-10-04T10:28:04.529Z,20.03
2022-10-04T10:30:48.004Z,17.08
2022-10-04T10:33:53.379Z,19.90
2022-10-04T10:36:44.195Z,15.88
2022-10-04T10:39:59.168Z,16.35
2022-10-04T10:42:54.736Z,16.70
2022-10-04T10:45:40.663Z,14.52
2022-10-04T10:48:18.413Z,15.05
2022-10-04T10:51:03.731Z,18.45
2022-10-04T10:54:11.782Z,18.05
2022-10-04T10:56:59.267Z,14.93
2022-10-04T11:00:04.273Z,15.43
2022-10-04T11:03:14.284Z,14.35
2022-10-04T11:06:14.998Z,13.60
2022-10-04T11:09:14.979Z,15.02
2022-10-04T11:12:19.638Z,14.40
2022-10-04T11:15:25.998Z,14.40
2022-10-04T11:18:13.401Z,12.77
2022-10-04T11:20:55.113Z,15.82
2022-10-04T11:24:06.272Z,16.25
2022-10-04T11:26:56.937Z,14.83
2022-10-04T11:29:41.912Z,11.60
2022-10-04T11:32:41.620Z,13.63
2022-10-04T11:35:44.194Z,10.85
2022-10-04T11:38:27.265Z,14.75
2022-10-04T11:41:16.641Z,14.80
2022-10-04T11:44:14.819Z,13.60
2022-10-04T11:46:49.430Z,14.73
2022-10-04T11:49:35.840Z,12.63
2022-10-04T11:52:38.149Z,14.25
2022-10-04T11:56:04.045Z,12.60
2022-10-04T11:58:43.943Z,9.73
2022-10-04T12:01:53.347Z,17.92
2022-10-04T12:04:44.541Z,10.15
2022-10-04T12:07:30.908Z,9.38
2022-10-04T12:10:11.693Z,14.47
2022-10-04T12:13:16.317Z,11.38
2022-10-04T12:15:53.575Z,12.80
2022-10-04T12:18:49.427Z,15.13
2022-10-04T12:21:34.841Z,9.10
2022-10-04T12:24:39.135Z,11.53
2022-10-04T12:27:39.046Z,10.27
2022-10-04T12:30:22.188Z,10.68
2022-10-04T12:33:00.372Z,8.68
2022-10-04T12:35:42.004Z,9.35
2022-10-04T12:38:40.239Z,10.40
2022-10-04T12:41:17.269Z,8.23
2022-10-04T12:43:56.612Z,13.20
2022-10-04T12:46:34.525Z,9.02
2022-10-04T12:49:15.738Z,10.90
2022-10-04T12:52:03.448Z,11.10
2022-10-04T12:54:38.933Z,10.48
2022-10-04T12:57:29.919Z,10.88
2022-10-04T13:00:05.949Z,7.03
2022-10-04T13:02:54.632Z,8.95
2022-10-04T13:05:28.716Z,10.83
2022-10-04T13:08:14.623Z,9.50
2022-10-04T13:10:52.131Z,9.82
2022-10-04T13:13:49.747Z,9.23
2022-10-04T13:19:20.686Z,11.37
2022-10-04T13:22:43.889Z,14.10
2022-10-04T13:25:24.007Z,7.25
2022-10-04T13:27:58.102Z,10.23
2022-10-04T13:30:28.054Z,9.73
2022-10-04T13:33:04.541Z,12.70
2022-10-04T13:35:37.500Z,7.90
2022-10-04T13:38:24.841Z,9.38
2022-10-04T13:41:14.773Z,12.23
2022-10-04T13:44:20.805Z,16.27
2022-10-04T13:47:05.934Z,9.60
2022-10-04T13:49:48.311Z,9.95
2022-10-04T13:52:45.513Z,13.95
2022-10-04T13:55:42.342Z,14.07
2022-10-04T13:58:26.312Z,12.48
2022-10-04T14:01:13.282Z,10.57
2022-10-04T14:03:50.532Z,10.02
2022-10-04T14:06:47.554Z,7.53
2022-10-04T14:09:30.961Z,7.72
2022-10-04T14:12:17.470Z,8.65
2022-10-04T14:15:12.328Z,12.43
2022-10-04T14:18:09.864Z,12.73
2022-10-04T14:21:19.224Z,11.70
2022-10-04T14:24:12.575Z,9.98
2022-10-04T14:27:17.312Z,12.60
2022-10-04T14:30:08.200Z,8.00
2022-10-04T14:33:13.591Z,8.45
2022-10-04T14:35:46.798Z,9.35
2022-10-04T14:38:47.772Z,17.63
2022-10-04T14:41:36.422Z,9.35
2022-10-04T14:44:44.217Z,15.43
2022-10-04T14:47:31.979Z,10.27
2022-10-04T14:50:08.998Z,8.65
2022-10-04T14:52:53.691Z,10.57
2022-10-04T14:55:40.653Z,10.30
2022-10-04T14:58:19.895Z,11.37
2022-10-04T15:01:12.835Z,11.77
2022-10-04T15:03:55.250Z,10.00
2022-10-04T15:06:36.419Z,11.70
2022-10-04T15:09:25.286Z,11.30
2022-10-04T15:12:24.802Z,12.57
2022-10-04T15:15:16.755Z,12.25
2022-10-04T15:17:59.613Z,7.25
2022-10-04T15:20:34.689Z,15.30
2022-10-04T15:23:14.224Z,8.52
2022-10-04T15:25:44.299Z,10.13
2022-10-04T15:28:42.475Z,8.32
2022-10-04T15:31:18.613Z,8.57
2022-10-04T15:33:59.640Z,7.95
2022-10-04T15:37:00.179Z,8.52
2022-10-04T15:39:41.036Z,9.03
2022-10-04T15:42:14.220Z,10.77
2022-10-04T15:45:02.142Z,7.10
2022-10-04T15:47:35.280Z,9.23
2022-10-04T15:50:23.533Z,7.85
2022-10-04T15:53:16.095Z,8.27
2022-10-04T15:56:02.844Z,9.40
2022-10-04T15:58:52.714Z,9.65
2022-10-04T16:01:34.681Z,9.07
2022-10-04T16:04:40.302Z,9.02
2022-10-04T16:07:40.450Z,10.27
2022-10-04T16:10:19.278Z,8.32
2022-10-04T16:13:07.239Z,9.90
2022-10-04T16:15:37.971Z,8.98
2022-10-04T16:18:30.654Z,11.10
2022-10-04T16:21:15.253Z,7.63
2022-10-04T16:23:44.386Z,7.40
2022-10-04T16:26:15.955Z,9.85
2022-10-04T16:29:11.904Z,7.18
2022-10-04T16:31:48.937Z,6.65
2022-10-04T16:34:48.367Z,8.00
2022-10-04T16:37:32.006Z,10.35
2022-10-04T16:40:05.521Z,12.73
2022-10-04T16:42:49.072Z,8.05
2022-10-04T16:45:39.534Z,8.05
2022-10-04T16:48:16.338Z,10.40
2022-10-04T16:51:04.753Z,8.35
2022-10-04T16:53:48.487Z,7.85
2022-10-04T16:56:18.161Z,9.40
2022-10-04T16:59:01.801Z,8.10
2022-10-04T17:02:00.169Z,8.00
2022-10-04T17:04:52.058Z,12.13
2022-10-04T17:07:28.215Z,7.22
2022-10-04T17:10:03.481Z,9.18
2022-10-04T17:12:37.452Z,12.70
2022-10-04T17:15:41.376Z,9.10
2022-10-04T17:18:21.172Z,8.07
2022-10-04T17:20:57.943Z,10.02
2022-10-04T17:23:51.353Z,11.65
2022-10-04T17:26:37.205Z,7.00
2022-10-04T17:29:19.456Z,8.17
2022-10-04T17:31:57.750Z,7.13
2022-10-04T17:34:36.923Z,8.10
2022-10-04T17:37:16.402Z,5.97
2022-10-04T17:39:48.515Z,6.68
2022-10-04T17:42:27.148Z,8.03
2022-10-04T17:45:36.008Z,5.45
2022-10-04T17:48:27.388Z,8.45
2022-10-04T17:51:20.577Z,7.63
2022-10-04T17:54:09.589Z,7.75
2022-10-04T17:56:43.844Z,6.73
2022-10-04T17:59:17.072Z,6.85
2022-10-04T18:01:48.626Z,8.07
2022-10-04T18:04:20.534Z,6.88
2022-10-04T18:06:53.785Z,6.38
2022-10-04T18:09:26.155Z,11.67
2022-10-04T18:11:57.527Z,7.72
2022-10-04T18:14:46.550Z,10.40
2022-10-04T18:17:26.415Z,7.88
2022-10-04T18:20:08.039Z,10.60
2022-10-04T18:22:47.489Z,10.27
2022-10-04T18:25:17.616Z,8.90
2022-10-04T18:27:51.848Z,6.68
2022-10-04T18:30:22.580Z,7.68
2022-10-04T18:32:52.570Z,10.05
2022-10-04T18:35:26.769Z,9.73
2022-10-04T18:37:56.713Z,8.65
2022-10-04T18:40:26.935Z,9.10
2022-10-04T18:42:57.064Z,9.02
2022-10-04T18:45:27.384Z,8.38
2022-10-04T18:47:56.894Z,13.17
2022-10-04T18:50:35.265Z,9.07
2022-10-04T18:53:24.850Z,10.10
2022-10-04T18:56:01.252Z,10.60
2022-10-04T18:58:58.896Z,14.00
2022-10-04T19:01:58.013Z,13.50
2022-10-04T19:04:38.716Z,14.13
2022-10-04T19:07:12.062Z,12.25
2022-10-04T19:10:03.429Z,9.13
2022-10-04T19:12:39.197Z,12.35
2022-10-04T19:15:21.913Z,11.10
2022-10-04T19:17:59.074Z,12.98
2022-10-04T19:20:35.229Z,14.73
2022-10-04T19:23:19.092Z,11.98
2022-10-04T19:26:08.711Z,12.05
2022-10-04T19:28:38.260Z,10.53
2022-10-04T19:31:17.768Z,12.55
2022-10-04T19:33:51.612Z,8.40
2022-10-04T19:36:28.088Z,5.97
2022-10-04T19:39:12.403Z,8.68
2022-10-04T19:41:49.557Z,15.97
2022-10-04T19:44:27.084Z,15.73
2022-10-04T19:47:00.795Z,7.43
2022-10-04T19:49:37.785Z,6.53
2022-10-04T19:52:21.871Z,9.07
2022-10-04T19:54:57.388Z,6.63
2022-10-04T19:57:36.406Z,7.65
2022-10-04T20:00:05.589Z,6.95
2022-10-04T20:02:44.660Z,10.30
2022-10-04T20:05:20.012Z,7.38
2022-10-04T20:07:52.156Z,8.40
2022-10-04T20:10:30.905Z,6.32
2022-10-04T20:13:21.135Z,5.38
2022-10-04T20:15:50.516Z,8.07
2022-10-04T20:19:09.758Z,8.32
2022-10-04T20:21:37.457Z,8.43
2022-10-04T20:24:05.497Z,10.25
2022-10-04T20:27:06.040Z,6.88
2022-10-04T20:30:04.113Z,5.93
2022-10-04T20:32:54.537Z,9.35
2022-10-04T20:36:08.884Z,7.83
2022-10-04T20:38:59.392Z,9.82
2022-10-04T20:42:24.667Z,7.55
2022-10-04T20:44:56.483Z,9.45
2022-10-04T20:47:39.317Z,7.18
2022-10-04T20:50:16.151Z,8.97
2022-10-04T20:52:49.166Z,7.00
2022-10-04T20:55:21.972Z,7.38
2022-10-04T20:57:49.691Z,10.68
2022-10-04T21:00:21.871Z,10.27
2022-10-04T21:02:50.207Z,6.13
2022-10-04T21:05:25.282Z,8.05
2022-10-04T21:08:14.443Z,9.57
2022-10-04T21:11:03.828Z,7.40
2022-10-04T21:13:49.632Z,6.95
2022-10-04T21:16:39.169Z,16.37
2022-10-04T21:19:46.789Z,8.80
2022-10-04T21:22:42.368Z,9.95
2022-10-04T21:25:33.144Z,6.65
2022-10-04T21:28:33.104Z,9.77
2022-10-04T21:31:02.155Z,8.27
2022-10-04T21:33:35.612Z,8.45
2022-10-04T21:36:04.318Z,9.15
2022-10-04T21:38:33.200Z,8.95
2022-10-04T21:41:01.070Z,11.45
2022-10-04T21:43:28.814Z,7.17
2022-10-04T21:45:56.831Z,9.20
2022-10-04T21:48:25.129Z,8.10
2022-10-04T21:50:55.165Z,6.95
2022-10-04T21:53:23.548Z,7.13
2022-10-04T21:55:51.392Z,6.53
2022-10-04T21:58:19.192Z,6.47
2022-10-04T22:00:47.046Z,8.05
2022-10-04T22:03:14.760Z,5.15
2022-10-04T22:05:42.441Z,7.68
2022-10-04T22:08:11.666Z,6.50
2022-10-04T22:10:39.964Z,9.98
2022-10-04T22:13:08.076Z,7.50
2022-10-04T22:15:36.470Z,5.68
2022-10-04T22:18:04.448Z,8.43
2022-10-04T22:20:32.417Z,5.30
2022-10-04T22:23:00.252Z,8.63
2022-10-04T22:25:29.534Z,11.27
2022-10-04T22:27:57.248Z,10.00
2022-10-04T22:30:28.383Z,8.13
2022-10-04T22:32:58.175Z,8.73
2022-10-04T22:35:26.109Z,6.85
2022-10-04T22:37:54.892Z,8.40
2022-10-04T22:40:24.532Z,7.53
2022-10-04T22:42:56.573Z,6.22
2022-10-04T22:45:27.031Z,5.37
2022-10-04T22:47:58.827Z,7.38
2022-10-04T22:50:34.945Z,10.93
2022-10-04T22:53:05.863Z,8.13
2022-10-04T22:55:33.563Z,9.68
2022-10-04T22:58:04.064Z,9.47
2022-10-04T23:00:31.777Z,10.23
2022-10-04T23:02:59.539Z,11.63
2022-10-04T23:05:29.021Z,8.20
2022-10-04T23:07:56.765Z,9.82
2022-10-04T23:10:24.574Z,12.00
2022-10-04T23:12:52.260Z,9.70
2022-10-04T23:15:22.215Z,6.63
2022-10-04T23:17:55.395Z,7.80
2022-10-04T23:20:23.407Z,11.50
2022-10-04T23:22:53.836Z,9.67
2022-10-04T23:25:25.783Z,14.20
2022-10-04T23:27:53.800Z,8.55
2022-10-04T23:30:23.607Z,7.18
2022-10-04T23:32:54.052Z,9.45
2022-10-04T23:35:24.636Z,8.40
2022-10-04T23:37:53.955Z,8.48
2022-10-04T23:40:23.204Z,8.70
2022-10-04T23:42:54.279Z,8.50
2022-10-04T23:45:25.764Z,6.50
2022-10-04T23:47:56.272Z,10.53
2022-10-04T23:50:27.640Z,9.68
2022-10-04T23:53:02.178Z,8.25
2022-10-04T23:55:33.127Z,8.07
2022-10-04T23:58:00.996Z,10.63
